Dubuque, IA (52002)

12:01 AM CDT on April 27, 2017 (GMT -0500)
Lindale | | Change Station

Elev 850 ft 42.51 °N, 90.71 °W | Updated 43 seconds ago

Overcast
Overcast
44.1 °F
Feels Like 44 °F
N
2.9
Wind Variable Wind from WNW
Gusts 4.9 mph

Today
High -- | Low -- °F
--% Chance of Precip.
Yesterday
High -- | Low -- °F
Precip. -- in
Pressure 29.48 in
Visibility 10.0 miles
Clouds Mostly Cloudy 900 ft
Mostly Cloudy 1400 ft
Overcast 8000 ft
Windchill 44 °F
Dew Point 43 °F
Humidity 96%
Rainfall 0.00 in
Snow Depth Not available.
6:03 AM 7:58 PM
New Moon, 1% visible
METAR KDBQ 270453Z AUTO 33013KT 10SM BKN009 BKN014 OVC080 06/04 A2947 RMK AO2 SLP982 T00560039
Pressure 29.48 in
Visibility 10.0 miles
Clouds Mostly Cloudy 900 ft
Mostly Cloudy 1400 ft
Overcast 8000 ft
Windchill 44 °F
Dew Point 43 °F
Humidity 96%
Rainfall 0.00 in
Snow Depth Not available.
6:03 AM 7:58 PM
New Moon, 1% visible
METAR KDBQ 270453Z AUTO 33013KT 10SM BKN009 BKN014 OVC080 06/04 A2947 RMK AO2 SLP982 T00560039

Get Severe Weather Alerts

Thanks for signing up!

Be on the lookout for a verification email in your inbox.

You'll start receiving the daily forecast at 8 AM.

×

10-Day Weather Forecast

Almanac

Astronomy

Apr. 27, 2017 Rise Set
Actual Time
Civil Twilight
Nautical Twilight
Astronomical Twilight
Moon
Length of Visible Light
Length of Day
Tomorrow will be .
, % of the Moon is Illuminated

Today's Extremes

State Highs State Lows

Community

WunderPhotos

WunderBlog® & News

Nearby

Air Quality

  Air Quality AQ Index Pollutant
Not available.

Snow Depth

Station Depth Elevation

Earthquake Activity

City Distance Mag. Time & Date
Minimum magnitude displayed is 2.5.

Coastal Water Temperatures

Place Temperature

Stations

Nearby Weather Stations

Station Location Temp. Windchill Dew Point Humidity Wind Precip. Elev Updated Type
                   

Watches & Warnings

There are currently no watches in effect.